createdAt,value
2022-11-15T00:00:52.707Z,43.55
2022-11-15T00:03:22.160Z,39.90
2022-11-15T00:05:48.555Z,41.60
2022-11-15T00:08:15.021Z,42.25
2022-11-15T00:10:41.971Z,39.65
2022-11-15T00:13:12.843Z,42.42
2022-11-15T00:15:41.186Z,43.78
2022-11-15T00:18:13.371Z,44.22
2022-11-15T00:20:39.996Z,42.83
2022-11-15T00:23:07.132Z,42.03
2022-11-15T00:25:33.914Z,43.78
2022-11-15T00:28:01.026Z,41.38
2022-11-15T00:30:28.455Z,41.70
2022-11-15T00:32:55.255Z,41.65
2022-11-15T00:35:22.249Z,42.03
2022-11-15T00:37:48.908Z,41.50
2022-11-15T00:40:16.149Z,43.95
2022-11-15T00:42:42.710Z,41.92
2022-11-15T00:45:09.861Z,41.45
2022-11-15T00:47:36.563Z,41.78
2022-11-15T00:50:03.203Z,41.83
2022-11-15T00:52:29.639Z,45.80
2022-11-15T00:54:56.002Z,51.33
2022-11-15T00:57:22.409Z,54.50
2022-11-15T00:59:48.756Z,57.72
2022-11-15T01:02:15.141Z,59.35
2022-11-15T01:04:41.474Z,60.00
2022-11-15T01:07:07.842Z,57.90
2022-11-15T01:09:34.200Z,53.05
2022-11-15T01:12:00.560Z,50.25
2022-11-15T01:14:27.283Z,48.90
2022-11-15T01:16:53.864Z,51.50
2022-11-15T01:19:20.295Z,63.22
2022-11-15T01:21:50.274Z,61.65
2022-11-15T01:24:16.966Z,61.97
2022-11-15T01:26:43.426Z,58.55
2022-11-15T01:29:09.824Z,66.97
2022-11-15T01:31:36.272Z,61.45
2022-11-15T01:34:02.761Z,65.28
2022-11-15T01:36:29.112Z,65.88
2022-11-15T01:38:59.333Z,63.72
2022-11-15T01:41:31.881Z,63.22
2022-11-15T01:44:37.224Z,61.67
2022-11-15T01:49:38.643Z,67.00
2022-11-15T01:52:10.175Z,66.22
2022-11-15T01:54:36.740Z,65.43
2022-11-15T01:57:08.107Z,65.88
2022-11-15T01:59:34.722Z,65.63
2022-11-15T02:02:01.587Z,64.32
2022-11-15T02:04:32.071Z,59.50
2022-11-15T02:06:59.597Z,67.60
2022-11-15T02:09:26.131Z,62.30
2022-11-15T02:11:55.674Z,60.70
2022-11-15T02:14:23.327Z,61.03
2022-11-15T02:17:26.016Z,64.97
2022-11-15T02:20:15.080Z,61.72
2022-11-15T02:23:12.600Z,62.38
2022-11-15T02:25:56.207Z,64.95
2022-11-15T02:28:42.742Z,62.90
2022-11-15T02:31:13.326Z,58.92
2022-11-15T02:33:48.691Z,59.17
2022-11-15T02:36:43.173Z,62.22
2022-11-15T02:39:38.821Z,63.63
2022-11-15T02:42:30.939Z,61.45
2022-11-15T02:44:59.128Z,57.55
2022-11-15T02:47:31.030Z,54.00
2022-11-15T02:50:06.660Z,57.92
2022-11-15T02:52:33.051Z,56.42
2022-11-15T02:55:01.216Z,61.45
2022-11-15T02:57:46.578Z,61.15
2022-11-15T03:00:18.079Z,55.78
2022-11-15T03:03:02.641Z,59.70
2022-11-15T03:06:03.082Z,61.92
2022-11-15T03:08:38.995Z,58.58
2022-11-15T03:11:12.449Z,56.97
2022-11-15T03:13:58.501Z,61.22
2022-11-15T03:16:37.685Z,59.15
2022-11-15T03:19:21.612Z,55.13
2022-11-15T03:21:49.953Z,58.75
2022-11-15T03:24:25.690Z,59.60
2022-11-15T03:26:56.183Z,59.67
2022-11-15T03:29:28.659Z,60.22
2022-11-15T03:32:01.710Z,58.90
2022-11-15T03:34:48.467Z,61.53
2022-11-15T03:37:17.452Z,59.17
2022-11-15T03:39:44.692Z,69.63
2022-11-15T03:42:27.036Z,66.60
2022-11-15T03:45:03.408Z,69.43
2022-11-15T03:47:35.536Z,69.03
2022-11-15T03:50:19.272Z,70.20
2022-11-15T03:52:48.060Z,64.23
2022-11-15T03:55:18.806Z,64.22
2022-11-15T03:57:45.375Z,55.70
2022-11-15T04:00:12.212Z,55.05
2022-11-15T04:02:38.607Z,57.15
2022-11-15T04:05:05.344Z,60.80
2022-11-15T04:07:31.820Z,61.53
2022-11-15T04:10:04.280Z,63.05
2022-11-15T04:12:35.217Z,61.67
2022-11-15T04:15:09.175Z,53.63
2022-11-15T04:17:48.788Z,53.03
2022-11-15T04:20:33.853Z,53.30
2022-11-15T04:23:21.130Z,55.83
2022-11-15T04:25:51.878Z,59.10
2022-11-15T04:28:18.922Z,54.22
2022-11-15T04:30:45.426Z,58.60
2022-11-15T04:33:11.798Z,57.05
2022-11-15T04:35:38.306Z,58.03
2022-11-15T04:38:06.223Z,61.38
2022-11-15T04:40:32.897Z,56.25
2022-11-15T04:43:03.650Z,57.67
2022-11-15T04:45:31.150Z,55.72
2022-11-15T04:47:57.540Z,55.85
2022-11-15T04:50:24.016Z,52.58
2022-11-15T04:52:54.943Z,63.55
2022-11-15T04:55:21.877Z,57.03
2022-11-15T04:57:48.237Z,53.20
2022-11-15T05:00:17.167Z,57.85
2022-11-15T05:03:02.182Z,57.75
2022-11-15T05:05:28.593Z,55.88
2022-11-15T05:07:54.947Z,58.65
2022-11-15T05:10:21.478Z,57.50
2022-11-15T05:12:48.180Z,59.63
2022-11-15T05:15:14.597Z,62.90
2022-11-15T05:17:40.931Z,60.90
2022-11-15T05:20:07.888Z,59.90
2022-11-15T05:22:34.269Z,59.40
2022-11-15T05:25:00.655Z,57.80
2022-11-15T05:27:28.266Z,60.95
2022-11-15T05:29:54.655Z,59.67
2022-11-15T05:32:21.532Z,56.40
2022-11-15T05:34:47.902Z,59.00
2022-11-15T05:37:18.083Z,61.50
2022-11-15T05:39:46.563Z,63.17
2022-11-15T05:42:18.032Z,61.60
2022-11-15T05:44:49.088Z,60.75
2022-11-15T05:47:47.227Z,62.08
2022-11-15T05:50:17.963Z,59.78
2022-11-15T05:52:46.853Z,57.75
2022-11-15T05:55:16.292Z,53.65
2022-11-15T05:57:42.638Z,55.78
2022-11-15T06:00:10.235Z,52.90
2022-11-15T06:02:45.359Z,57.75
2022-11-15T06:05:11.942Z,52.10
2022-11-15T06:07:40.644Z,55.40
2022-11-15T06:10:07.839Z,52.97
2022-11-15T06:12:35.296Z,56.75
2022-11-15T06:15:08.180Z,59.25
2022-11-15T06:17:35.879Z,57.95
2022-11-15T06:20:02.372Z,54.42
2022-11-15T06:22:28.730Z,56.30
2022-11-15T06:24:55.076Z,59.15
2022-11-15T06:27:26.530Z,59.55
2022-11-15T06:29:53.095Z,54.47
2022-11-15T06:32:19.593Z,54.13
2022-11-15T06:34:52.482Z,52.25
2022-11-15T06:37:21.294Z,57.13
2022-11-15T06:39:50.754Z,54.78
2022-11-15T06:42:17.133Z,55.97
2022-11-15T06:44:52.915Z,54.75
2022-11-15T06:47:19.441Z,54.40
2022-11-15T06:49:45.928Z,49.75
2022-11-15T06:52:15.274Z,49.78
2022-11-15T06:54:41.598Z,47.63
2022-11-15T06:57:08.032Z,50.75
2022-11-15T06:59:39.328Z,46.78
2022-11-15T07:02:07.139Z,50.15
2022-11-15T07:04:35.078Z,48.95
2022-11-15T07:07:01.487Z,50.42
2022-11-15T07:09:27.807Z,51.08
2022-11-15T07:11:54.144Z,51.72
2022-11-15T07:14:20.481Z,50.17
2022-11-15T07:16:46.797Z,50.00
2022-11-15T07:19:13.123Z,51.97
2022-11-15T07:21:39.481Z,49.17
2022-11-15T07:24:09.011Z,46.47
2022-11-15T07:26:35.347Z,45.97
2022-11-15T07:29:01.850Z,43.63
2022-11-15T07:31:28.389Z,44.97
2022-11-15T07:33:54.750Z,44.97
2022-11-15T07:36:21.078Z,46.25
2022-11-15T07:38:47.421Z,45.65
2022-11-15T07:41:13.738Z,46.00
2022-11-15T07:43:40.138Z,43.70
2022-11-15T07:46:10.052Z,44.00
2022-11-15T07:48:44.167Z,44.67
2022-11-15T07:51:14.584Z,42.25
2022-11-15T07:53:41.701Z,42.92
2022-11-15T07:56:08.989Z,40.55
2022-11-15T07:58:35.365Z,39.60
2022-11-15T08:01:06.663Z,40.58
2022-11-15T08:03:34.425Z,39.70
2022-11-15T08:06:01.467Z,41.45
2022-11-15T08:08:27.828Z,43.15
2022-11-15T08:10:54.723Z,42.50
2022-11-15T08:13:22.096Z,42.20
2022-11-15T08:15:51.163Z,43.40
2022-11-15T08:18:21.214Z,46.47
2022-11-15T08:20:47.614Z,44.92
2022-11-15T08:23:14.225Z,45.22
2022-11-15T08:25:40.701Z,42.50
2022-11-15T08:28:08.859Z,38.92
2022-11-15T08:30:37.869Z,40.50
2022-11-15T08:33:04.684Z,40.28
2022-11-15T08:35:31.129Z,43.10
2022-11-15T08:37:57.529Z,39.72
2022-11-15T08:40:24.201Z,41.67
2022-11-15T08:42:50.848Z,43.40
2022-11-15T08:45:17.347Z,44.65
2022-11-15T08:47:43.723Z,42.92
2022-11-15T08:50:10.347Z,39.03
2022-11-15T08:52:39.278Z,39.80
2022-11-15T08:55:06.326Z,34.67
2022-11-15T08:57:32.727Z,33.83
2022-11-15T08:59:59.075Z,30.30
2022-11-15T09:02:25.606Z,27.90
2022-11-15T09:04:51.963Z,29.65
2022-11-15T09:07:18.934Z,26.40
2022-11-15T09:09:45.301Z,30.50
2022-11-15T09:12:11.891Z,28.00
2022-11-15T09:14:38.330Z,25.02
2022-11-15T09:17:11.504Z,23.02
2022-11-15T09:19:38.434Z,21.35
2022-11-15T09:22:07.891Z,21.85
2022-11-15T09:24:35.099Z,24.15
2022-11-15T09:27:01.605Z,24.95
2022-11-15T09:29:27.965Z,27.67
2022-11-15T09:31:54.324Z,29.90
2022-11-15T09:34:24.087Z,23.17
2022-11-15T09:37:05.293Z,25.27
2022-11-15T09:39:32.586Z,24.23
2022-11-15T09:42:09.948Z,26.02
2022-11-15T09:44:45.337Z,27.02
2022-11-15T09:47:40.298Z,24.30
2022-11-15T09:50:13.493Z,25.48
2022-11-15T09:52:45.190Z,26.48
2022-11-15T09:55:15.463Z,24.52
2022-11-15T09:57:44.763Z,24.65
2022-11-15T10:00:45.491Z,25.17
2022-11-15T10:03:16.450Z,16.80
2022-11-15T10:05:48.536Z,14.88
2022-11-15T10:08:36.511Z,11.57
2022-11-15T10:14:00.585Z,8.52
2022-11-15T10:16:48.069Z,8.55
2022-11-15T10:19:36.260Z,11.50
2022-11-15T10:22:15.062Z,6.80
2022-11-15T10:24:44.108Z,8.32
2022-11-15T10:27:13.784Z,7.07
2022-11-15T10:29:50.237Z,7.40
2022-11-15T10:32:21.601Z,9.70
2022-11-15T10:34:52.139Z,11.95
2022-11-15T10:37:32.801Z,12.82
2022-11-15T10:40:07.798Z,8.88
2022-11-15T10:42:34.283Z,7.40
2022-11-15T10:45:00.591Z,6.90
2022-11-15T10:47:37.814Z,7.35
2022-11-15T10:50:27.154Z,6.28
2022-11-15T10:52:54.200Z,5.95
2022-11-15T10:55:41.413Z,4.10
2022-11-15T10:58:36.594Z,4.40
2022-11-15T11:01:16.283Z,5.80
2022-11-15T11:03:44.808Z,4.85
2022-11-15T11:06:14.436Z,4.80
2022-11-15T11:08:41.784Z,6.47
2022-11-15T11:11:09.292Z,6.90
2022-11-15T11:13:40.472Z,7.18
2022-11-15T11:16:16.000Z,8.48
2022-11-15T11:18:57.621Z,7.75
2022-11-15T11:22:06.641Z,7.50
2022-11-15T11:24:48.401Z,6.85
2022-11-15T11:27:33.526Z,6.95
2022-11-15T11:30:21.168Z,7.07
2022-11-15T11:32:54.975Z,6.00
2022-11-15T11:38:33.733Z,7.22
2022-11-15T11:41:20.611Z,5.75
2022-11-15T11:44:24.335Z,6.47
2022-11-15T11:46:59.769Z,5.53
2022-11-15T11:49:31.904Z,7.28
2022-11-15T11:52:27.964Z,5.75
2022-11-15T11:55:17.830Z,5.63
2022-11-15T11:57:54.166Z,5.93
2022-11-15T12:00:24.066Z,6.00
2022-11-15T12:03:04.263Z,5.78
2022-11-15T12:05:49.802Z,5.93
2022-11-15T12:08:53.440Z,6.03
2022-11-15T12:11:36.345Z,5.95
2022-11-15T12:14:10.139Z,6.70
2022-11-15T12:16:38.894Z,6.18
2022-11-15T12:19:08.610Z,6.45
2022-11-15T12:21:55.436Z,7.05
2022-11-15T12:24:32.578Z,7.47
2022-11-15T12:27:23.358Z,5.60
2022-11-15T12:29:57.154Z,5.78
2022-11-15T12:32:31.384Z,7.25
2022-11-15T12:34:59.857Z,5.68
2022-11-15T12:37:49.963Z,6.80
2022-11-15T12:40:34.660Z,6.20
2022-11-15T12:45:45.302Z,6.43
2022-11-15T12:48:17.714Z,5.68
2022-11-15T12:50:56.109Z,6.57
2022-11-15T12:53:25.583Z,6.28
2022-11-15T12:56:07.061Z,7.03
2022-11-15T12:58:53.034Z,6.32
2022-11-15T13:01:31.926Z,5.95
2022-11-15T13:04:20.383Z,6.45
2022-11-15T13:06:48.442Z,5.85
2022-11-15T13:09:30.019Z,6.97
2022-11-15T13:11:57.959Z,6.82
2022-11-15T13:14:42.342Z,7.00
2022-11-15T13:17:17.294Z,6.32
2022-11-15T13:19:44.583Z,6.60
2022-11-15T13:22:29.679Z,6.43
2022-11-15T13:24:57.026Z,7.30
2022-11-15T13:27:23.473Z,7.20
2022-11-15T13:29:49.908Z,7.32
2022-11-15T13:32:17.487Z,13.75
2022-11-15T13:34:52.390Z,7.18
2022-11-15T13:37:22.432Z,6.78
2022-11-15T13:39:50.323Z,6.78
2022-11-15T13:42:19.059Z,7.05
2022-11-15T13:45:00.419Z,7.25
2022-11-15T13:47:28.460Z,7.35
2022-11-15T13:49:58.091Z,7.63
2022-11-15T13:52:31.209Z,7.60
2022-11-15T13:55:14.212Z,7.72
2022-11-15T13:57:48.761Z,8.90
2022-11-15T14:00:34.351Z,8.57
2022-11-15T14:03:29.067Z,7.10
2022-11-15T14:06:15.936Z,7.57
2022-11-15T14:08:58.724Z,9.32
2022-11-15T14:11:25.116Z,9.57
2022-11-15T14:14:09.868Z,10.27
2022-11-15T14:19:05.281Z,9.48
2022-11-15T14:21:32.356Z,10.10
2022-11-15T14:24:17.460Z,11.23
2022-11-15T14:26:43.800Z,11.05
2022-11-15T14:29:29.773Z,11.73
2022-11-15T14:32:44.918Z,11.45
2022-11-15T14:35:16.498Z,11.63
2022-11-15T14:37:43.342Z,12.68
2022-11-15T14:40:14.484Z,12.07
2022-11-15T14:42:40.914Z,11.40
2022-11-15T14:45:28.234Z,10.75
2022-11-15T14:47:54.865Z,11.05
2022-11-15T14:50:22.494Z,10.55
2022-11-15T14:52:49.678Z,11.30
2022-11-15T14:55:24.224Z,10.48
2022-11-15T14:57:51.050Z,9.65
2022-11-15T15:00:17.715Z,9.27
2022-11-15T15:02:45.686Z,9.00
2022-11-15T15:05:17.979Z,10.05
2022-11-15T15:07:44.567Z,11.13
2022-11-15T15:10:38.384Z,10.60
2022-11-15T15:12:57.481Z,10.45
2022-11-15T15:15:32.738Z,11.10
2022-11-15T15:17:59.128Z,11.60
2022-11-15T15:20:25.483Z,11.20
2022-11-15T15:22:51.889Z,11.85
2022-11-15T15:25:36.564Z,11.07
2022-11-15T15:30:31.453Z,10.57
2022-11-15T15:32:57.956Z,11.05
2022-11-15T15:35:26.358Z,10.98
2022-11-15T15:37:52.675Z,12.20
2022-11-15T15:40:24.313Z,16.80
2022-11-15T15:42:51.068Z,16.60
2022-11-15T15:45:19.355Z,17.30
2022-11-15T15:47:46.816Z,17.88
2022-11-15T15:50:23.640Z,19.00
2022-11-15T15:52:54.690Z,15.90
2022-11-15T15:55:21.798Z,14.70
2022-11-15T15:57:48.870Z,17.25
2022-11-15T16:00:16.089Z,17.33
2022-11-15T16:02:42.474Z,15.70
2022-11-15T16:05:10.033Z,15.02
2022-11-15T16:07:37.180Z,13.82
2022-11-15T16:10:31.605Z,14.55
2022-11-15T16:12:58.829Z,12.00
2022-11-15T16:15:27.873Z,12.48
2022-11-15T16:17:56.167Z,11.90
2022-11-15T16:20:31.651Z,12.88
2022-11-15T16:22:59.836Z,13.65
2022-11-15T16:25:28.732Z,13.65
2022-11-15T16:27:55.073Z,13.02
2022-11-15T16:30:23.609Z,12.82
2022-11-15T16:32:50.474Z,14.60
2022-11-15T16:35:17.626Z,13.32
2022-11-15T16:37:45.801Z,14.48
2022-11-15T16:40:28.415Z,14.25
2022-11-15T16:42:56.475Z,15.20
2022-11-15T16:45:23.551Z,16.63
2022-11-15T16:47:50.271Z,20.77
2022-11-15T16:50:24.013Z,25.92
2022-11-15T16:52:52.390Z,30.35
2022-11-15T16:55:28.171Z,26.30
2022-11-15T16:57:55.879Z,22.85
2022-11-15T17:00:22.358Z,26.00
2022-11-15T17:02:50.414Z,27.55
2022-11-15T17:05:20.550Z,24.17
2022-11-15T17:07:50.397Z,26.52
2022-11-15T17:10:16.976Z,26.60
2022-11-15T17:12:43.881Z,25.30
2022-11-15T17:15:13.582Z,26.88
2022-11-15T17:17:40.940Z,27.08
2022-11-15T17:20:14.459Z,26.63
2022-11-15T17:22:40.935Z,28.55
2022-11-15T17:25:07.624Z,30.42
2022-11-15T17:27:34.055Z,31.92
2022-11-15T17:30:00.427Z,36.67
2022-11-15T17:32:27.335Z,36.72
2022-11-15T17:34:53.845Z,38.25
2022-11-15T17:41:14.560Z,37.30
2022-11-15T17:43:41.816Z,36.28
2022-11-15T17:46:13.881Z,37.75
2022-11-15T17:48:40.424Z,39.55
2022-11-15T17:51:10.064Z,41.00
2022-11-15T17:53:39.098Z,39.78
2022-11-15T17:56:08.640Z,43.72
2022-11-15T17:58:35.536Z,44.50
2022-11-15T18:01:18.957Z,50.95
2022-11-15T18:03:48.272Z,50.95
2022-11-15T18:06:15.742Z,57.13
2022-11-15T18:08:44.666Z,56.70
2022-11-15T18:11:18.833Z,58.97
2022-11-15T18:13:51.930Z,59.22
2022-11-15T18:16:20.903Z,58.80
2022-11-15T18:18:47.565Z,65.18
2022-11-15T18:21:17.518Z,66.85
2022-11-15T18:23:44.711Z,64.40
2022-11-15T18:26:16.511Z,58.72
2022-11-15T18:28:45.527Z,60.03
2022-11-15T18:31:15.557Z,64.80
2022-11-15T18:33:45.029Z,72.35
2022-11-15T18:36:13.825Z,65.07
2022-11-15T18:38:40.908Z,69.82
2022-11-15T18:41:10.100Z,69.90
2022-11-15T18:43:37.814Z,65.47
2022-11-15T18:46:10.265Z,67.50
2022-11-15T18:48:39.648Z,62.85
2022-11-15T18:51:20.575Z,67.00
2022-11-15T18:53:47.434Z,61.13
2022-11-15T18:56:16.506Z,59.20
2022-11-15T18:58:45.613Z,58.30
2022-11-15T19:01:20.652Z,56.28
2022-11-15T19:03:49.151Z,60.05
2022-11-15T19:06:17.986Z,55.67
2022-11-15T19:08:46.210Z,57.85
2022-11-15T19:11:18.907Z,58.10
2022-11-15T19:13:49.233Z,55.47
2022-11-15T19:16:16.116Z,57.05
2022-11-15T19:18:42.779Z,55.60
2022-11-15T19:21:16.062Z,56.95
2022-11-15T19:23:43.282Z,58.10
2022-11-15T19:26:12.761Z,61.10
2022-11-15T19:28:39.809Z,55.38
2022-11-15T19:31:17.191Z,57.08
2022-11-15T19:33:45.082Z,52.58
2022-11-15T19:36:22.921Z,56.83
2022-11-15T19:38:50.067Z,57.25
2022-11-15T19:41:18.538Z,53.38
2022-11-15T19:43:48.054Z,49.88
2022-11-15T19:46:15.488Z,56.63
2022-11-15T19:48:42.759Z,52.78
2022-11-15T19:51:14.827Z,54.67
2022-11-15T19:53:42.529Z,55.25
2022-11-15T19:56:17.640Z,53.88
2022-11-15T19:58:45.065Z,53.97
2022-11-15T20:01:21.299Z,55.88
2022-11-15T20:03:49.018Z,52.75
2022-11-15T20:06:17.832Z,55.95
2022-11-15T20:08:45.643Z,57.53
2022-11-15T20:11:12.862Z,54.78
2022-11-15T20:13:45.274Z,54.42
2022-11-15T20:16:22.320Z,55.88
2022-11-15T20:18:50.046Z,55.75
2022-11-15T20:21:16.949Z,56.92
2022-11-15T20:23:43.750Z,51.85
2022-11-15T20:26:11.666Z,51.72
2022-11-15T20:28:39.612Z,52.78
2022-11-15T20:31:07.369Z,52.83
2022-11-15T20:33:34.301Z,54.00
2022-11-15T20:36:07.728Z,53.00
2022-11-15T20:38:34.657Z,55.00
2022-11-15T20:41:01.478Z,50.72
2022-11-15T20:43:28.030Z,50.30
2022-11-15T20:45:54.566Z,53.10
2022-11-15T20:48:21.725Z,52.58
2022-11-15T20:50:48.248Z,54.08
2022-11-15T20:53:17.602Z,50.28
2022-11-15T20:55:47.936Z,49.38
2022-11-15T20:58:15.739Z,50.25
2022-11-15T21:00:43.193Z,52.30
2022-11-15T21:03:09.766Z,52.38
2022-11-15T21:05:41.619Z,49.92
2022-11-15T21:08:09.522Z,52.80
2022-11-15T21:10:54.430Z,57.30
2022-11-15T21:13:20.841Z,48.08
2022-11-15T21:15:47.247Z,47.05
2022-11-15T21:18:14.306Z,48.40
2022-11-15T21:20:41.335Z,49.08
2022-11-15T21:23:07.752Z,51.50
2022-11-15T21:25:34.430Z,49.90
2022-11-15T21:28:00.822Z,50.88
2022-11-15T21:30:27.257Z,49.42
2022-11-15T21:32:53.628Z,45.78
2022-11-15T21:35:20.046Z,49.60
2022-11-15T21:37:47.818Z,47.47
2022-11-15T21:40:16.250Z,47.78
2022-11-15T21:42:42.583Z,51.13
2022-11-15T21:45:09.458Z,48.72
2022-11-15T21:47:36.037Z,54.72
2022-11-15T21:50:02.427Z,52.40
2022-11-15T21:52:28.794Z,53.45
2022-11-15T21:54:55.203Z,56.55
2022-11-15T21:57:21.562Z,57.47
2022-11-15T22:00:06.558Z,59.20
2022-11-15T22:02:32.986Z,57.22
2022-11-15T22:04:59.410Z,60.78
2022-11-15T22:07:25.883Z,62.50
2022-11-15T22:09:52.277Z,61.83
2022-11-15T22:12:18.749Z,62.40
2022-11-15T22:14:45.089Z,60.20
2022-11-15T22:17:11.766Z,65.18
2022-11-15T22:19:51.791Z,61.00
2022-11-15T22:22:18.436Z,58.28
2022-11-15T22:24:44.810Z,63.70
2022-11-15T22:27:11.160Z,55.92
2022-11-15T22:29:37.513Z,62.28
2022-11-15T22:32:04.166Z,60.17
2022-11-15T22:34:30.554Z,59.33
2022-11-15T22:37:20.003Z,57.28
2022-11-15T22:39:43.215Z,59.00
2022-11-15T22:42:09.563Z,62.95
2022-11-15T22:44:35.897Z,56.58
2022-11-15T22:47:02.345Z,56.05
2022-11-15T22:49:28.757Z,57.63
2022-11-15T22:51:55.142Z,57.22
2022-11-15T22:54:21.508Z,57.13
2022-11-15T22:56:47.824Z,59.75
2022-11-15T22:59:14.180Z,56.13
2022-11-15T23:01:40.523Z,56.55
2022-11-15T23:04:07.108Z,54.08
2022-11-15T23:06:33.479Z,53.53
2022-11-15T23:08:59.824Z,56.15
2022-11-15T23:11:44.703Z,57.22
2022-11-15T23:14:11.270Z,54.67
2022-11-15T23:16:37.829Z,54.70
2022-11-15T23:19:07.337Z,57.42
2022-11-15T23:22:05.351Z,59.42
2022-11-15T23:24:32.972Z,52.67
2022-11-15T23:27:07.107Z,56.47
2022-11-15T23:29:54.476Z,56.92
2022-11-15T23:32:39.436Z,55.72
2022-11-15T23:35:06.045Z,53.58
2022-11-15T23:37:32.788Z,55.15
2022-11-15T23:39:59.207Z,54.35
2022-11-15T23:42:25.558Z,54.67
2022-11-15T23:44:52.032Z,54.92
2022-11-15T23:47:19.448Z,56.17
2022-11-15T23:49:46.044Z,51.55
2022-11-15T23:52:12.485Z,54.08
2022-11-15T23:54:38.934Z,56.55
2022-11-15T23:57:06.976Z,54.50
2022-11-15T23:59:33.346Z,55.22
